sensor_id;sensor_type;location;lat;lon;timestamp;P1;durP1;ratioP1;P2;durP2;ratioP2
74347;SDS011;62778;50.406;10.008;2022-09-12T00:00:10;7.80;;;4.43;;
74347;SDS011;62778;50.406;10.008;2022-09-12T00:01:10;8.35;;;4.10;;
74347;SDS011;62778;50.406;10.008;2022-09-12T00:02:07;8.50;;;4.35;;
74347;SDS011;62778;50.406;10.008;2022-09-12T00:03:02;7.77;;;3.97;;
74347;SDS011;62778;50.406;10.008;2022-09-12T00:03:59;8.03;;;4.30;;
74347;SDS011;62778;50.406;10.008;2022-09-12T00:04:55;7.90;;;4.28;;
74347;SDS011;62778;50.406;10.008;2022-09-12T00:05:50;7.37;;;4.13;;
74347;SDS011;62778;50.406;10.008;2022-09-12T00:06:45;8.90;;;4.60;;
74347;SDS011;62778;50.406;10.008;2022-09-12T00:07:41;7.83;;;4.17;;
74347;SDS011;62778;50.406;10.008;2022-09-12T00:08:36;7.88;;;4.20;;
74347;SDS011;62778;50.406;10.008;2022-09-12T00:09:31;7.60;;;4.17;;
74347;SDS011;62778;50.406;10.008;2022-09-12T00:10:27;8.20;;;4.27;;
74347;SDS011;62778;50.406;10.008;2022-09-12T00:11:22;8.00;;;3.97;;
74347;SDS011;62778;50.406;10.008;2022-09-12T00:12:18;8.23;;;4.50;;
74347;SDS011;62778;50.406;10.008;2022-09-12T00:13:13;7.43;;;3.97;;
74347;SDS011;62778;50.406;10.008;2022-09-12T00:14:10;7.00;;;4.18;;
74347;SDS011;62778;50.406;10.008;2022-09-12T00:15:07;8.27;;;4.50;;
74347;SDS011;62778;50.406;10.008;2022-09-12T00:16:03;7.82;;;4.50;;
74347;SDS011;62778;50.406;10.008;2022-09-12T00:16:59;7.55;;;4.30;;
74347;SDS011;62778;50.406;10.008;2022-09-12T00:17:54;8.63;;;4.85;;
74347;SDS011;62778;50.406;10.008;2022-09-12T00:18:50;8.00;;;4.80;;
74347;SDS011;62778;50.406;10.008;2022-09-12T00:19:47;8.48;;;4.63;;
74347;SDS011;62778;50.406;10.008;2022-09-12T00:20:43;8.70;;;4.63;;
74347;SDS011;62778;50.406;10.008;2022-09-12T00:21:40;8.23;;;4.80;;
74347;SDS011;62778;50.406;10.008;2022-09-12T00:22:35;9.83;;;5.27;;
74347;SDS011;62778;50.406;10.008;2022-09-12T00:23:31;8.30;;;4.80;;
74347;SDS011;62778;50.406;10.008;2022-09-12T00:24:27;7.97;;;4.50;;
74347;SDS011;62778;50.406;10.008;2022-09-12T00:25:22;8.13;;;4.23;;
74347;SDS011;62778;50.406;10.008;2022-09-12T00:26:18;6.53;;;3.47;;
74347;SDS011;62778;50.406;10.008;2022-09-12T00:27:14;7.22;;;3.67;;
74347;SDS011;62778;50.406;10.008;2022-09-12T00:28:10;8.80;;;4.67;;
74347;SDS011;62778;50.406;10.008;2022-09-12T00:29:06;7.20;;;3.80;;
74347;SDS011;62778;50.406;10.008;2022-09-12T00:30:02;7.07;;;3.78;;
74347;SDS011;62778;50.406;10.008;2022-09-12T00:30:58;7.30;;;3.70;;
74347;SDS011;62778;50.406;10.008;2022-09-12T00:31:53;7.40;;;3.97;;
74347;SDS011;62778;50.406;10.008;2022-09-12T00:32:49;8.30;;;4.67;;
74347;SDS011;62778;50.406;10.008;2022-09-12T00:33:45;8.68;;;4.40;;
74347;SDS011;62778;50.406;10.008;2022-09-12T00:34:41;10.73;;;5.03;;
74347;SDS011;62778;50.406;10.008;2022-09-12T00:35:49;8.50;;;4.57;;
74347;SDS011;62778;50.406;10.008;2022-09-12T00:36:46;9.50;;;4.37;;
74347;SDS011;62778;50.406;10.008;2022-09-12T00:37:42;8.65;;;4.68;;
74347;SDS011;62778;50.406;10.008;2022-09-12T00:38:37;7.17;;;4.37;;
74347;SDS011;62778;50.406;10.008;2022-09-12T00:39:35;8.20;;;4.65;;
74347;SDS011;62778;50.406;10.008;2022-09-12T00:40:31;8.80;;;4.80;;
74347;SDS011;62778;50.406;10.008;2022-09-12T00:41:30;8.63;;;4.70;;
74347;SDS011;62778;50.406;10.008;2022-09-12T00:42:30;9.18;;;4.30;;
74347;SDS011;62778;50.406;10.008;2022-09-12T00:45:28;7.70;;;3.77;;
74347;SDS011;62778;50.406;10.008;2022-09-12T00:46:29;8.02;;;4.60;;
74347;SDS011;62778;50.406;10.008;2022-09-12T00:47:28;9.73;;;4.53;;
74347;SDS011;62778;50.406;10.008;2022-09-12T00:48:27;7.72;;;4.18;;
74347;SDS011;62778;50.406;10.008;2022-09-12T00:49:36;7.68;;;4.25;;
74347;SDS011;62778;50.406;10.008;2022-09-12T00:50:38;8.90;;;5.00;;
74347;SDS011;62778;50.406;10.008;2022-09-12T00:51:33;9.13;;;4.83;;
74347;SDS011;62778;50.406;10.008;2022-09-12T00:52:39;8.18;;;4.72;;
74347;SDS011;62778;50.406;10.008;2022-09-12T00:53:38;8.50;;;4.78;;
74347;SDS011;62778;50.406;10.008;2022-09-12T00:54:37;8.77;;;4.70;;
74347;SDS011;62778;50.406;10.008;2022-09-12T00:55:39;7.40;;;4.07;;
74347;SDS011;62778;50.406;10.008;2022-09-12T00:56:36;10.40;;;4.80;;
74347;SDS011;62778;50.406;10.008;2022-09-12T00:57:37;9.05;;;4.20;;
74347;SDS011;62778;50.406;10.008;2022-09-12T00:58:42;10.10;;;5.15;;
74347;SDS011;62778;50.406;10.008;2022-09-12T00:59:47;10.43;;;5.03;;
74347;SDS011;62778;50.406;10.008;2022-09-12T01:00:44;9.52;;;4.90;;
74347;SDS011;62778;50.406;10.008;2022-09-12T01:01:41;8.90;;;5.03;;
74347;SDS011;62778;50.406;10.008;2022-09-12T01:02:37;10.27;;;5.60;;
74347;SDS011;62778;50.406;10.008;2022-09-12T01:03:32;10.00;;;4.93;;
74347;SDS011;62778;50.406;10.008;2022-09-12T01:04:28;8.53;;;5.03;;
74347;SDS011;62778;50.406;10.008;2022-09-12T01:05:24;8.90;;;4.90;;
74347;SDS011;62778;50.406;10.008;2022-09-12T01:06:21;7.90;;;4.70;;
74347;SDS011;62778;50.406;10.008;2022-09-12T01:07:20;7.13;;;3.88;;
74347;SDS011;62778;50.406;10.008;2022-09-12T01:08:16;7.88;;;4.10;;
74347;SDS011;62778;50.406;10.008;2022-09-12T01:09:12;9.13;;;4.70;;
74347;SDS011;62778;50.406;10.008;2022-09-12T01:10:11;8.30;;;4.50;;
74347;SDS011;62778;50.406;10.008;2022-09-12T01:11:07;9.57;;;5.00;;
74347;SDS011;62778;50.406;10.008;2022-09-12T01:12:04;9.20;;;4.97;;
74347;SDS011;62778;50.406;10.008;2022-09-12T01:13:00;8.88;;;4.45;;
74347;SDS011;62778;50.406;10.008;2022-09-12T01:13:58;9.93;;;4.93;;
74347;SDS011;62778;50.406;10.008;2022-09-12T01:14:53;9.00;;;4.78;;
74347;SDS011;62778;50.406;10.008;2022-09-12T01:15:49;9.87;;;4.83;;
74347;SDS011;62778;50.406;10.008;2022-09-12T01:16:44;9.70;;;4.50;;
74347;SDS011;62778;50.406;10.008;2022-09-12T01:20:34;8.65;;;4.70;;
74347;SDS011;62778;50.406;10.008;2022-09-12T01:27:48;8.95;;;4.90;;
74347;SDS011;62778;50.406;10.008;2022-09-12T01:29:06;9.30;;;5.10;;
74347;SDS011;62778;50.406;10.008;2022-09-12T01:30:38;8.77;;;4.72;;
74347;SDS011;62778;50.406;10.008;2022-09-12T01:31:40;8.65;;;4.60;;
74347;SDS011;62778;50.406;10.008;2022-09-12T01:37:37;8.13;;;4.47;;
74347;SDS011;62778;50.406;10.008;2022-09-12T01:39:39;8.77;;;4.78;;
74347;SDS011;62778;50.406;10.008;2022-09-12T01:42:58;10.02;;;4.90;;
74347;SDS011;62778;50.406;10.008;2022-09-12T01:47:20;8.40;;;4.70;;
74347;SDS011;62778;50.406;10.008;2022-09-12T01:48:18;7.90;;;4.28;;
74347;SDS011;62778;50.406;10.008;2022-09-12T01:50:24;7.03;;;3.80;;
74347;SDS011;62778;50.406;10.008;2022-09-12T01:51:22;7.43;;;4.10;;
74347;SDS011;62778;50.406;10.008;2022-09-12T01:52:22;7.38;;;3.97;;
74347;SDS011;62778;50.406;10.008;2022-09-12T01:53:25;9.10;;;5.03;;
74347;SDS011;62778;50.406;10.008;2022-09-12T01:54:39;9.05;;;4.57;;
74347;SDS011;62778;50.406;10.008;2022-09-12T01:56:26;8.95;;;4.53;;
74347;SDS011;62778;50.406;10.008;2022-09-12T01:57:35;9.95;;;4.78;;
74347;SDS011;62778;50.406;10.008;2022-09-12T01:58:37;8.95;;;5.13;;
74347;SDS011;62778;50.406;10.008;2022-09-12T01:59:39;8.88;;;4.95;;
74347;SDS011;62778;50.406;10.008;2022-09-12T02:00:42;9.05;;;4.70;;
74347;SDS011;62778;50.406;10.008;2022-09-12T02:01:46;8.43;;;4.63;;
74347;SDS011;62778;50.406;10.008;2022-09-12T02:02:50;8.50;;;4.47;;
74347;SDS011;62778;50.406;10.008;2022-09-12T02:03:49;7.82;;;4.38;;
74347;SDS011;62778;50.406;10.008;2022-09-12T02:04:48;8.20;;;4.07;;
74347;SDS011;62778;50.406;10.008;2022-09-12T02:05:49;7.78;;;3.42;;
74347;SDS011;62778;50.406;10.008;2022-09-12T02:06:57;8.98;;;4.20;;
74347;SDS011;62778;50.406;10.008;2022-09-12T02:07:58;9.25;;;4.63;;
74347;SDS011;62778;50.406;10.008;2022-09-12T02:09:02;9.13;;;5.03;;
74347;SDS011;62778;50.406;10.008;2022-09-12T02:10:08;8.02;;;4.30;;
74347;SDS011;62778;50.406;10.008;2022-09-12T02:11:08;8.65;;;5.00;;
74347;SDS011;62778;50.406;10.008;2022-09-12T02:12:04;9.63;;;4.80;;
74347;SDS011;62778;50.406;10.008;2022-09-12T02:13:07;8.90;;;5.40;;
74347;SDS011;62778;50.406;10.008;2022-09-12T02:14:31;10.63;;;5.60;;
74347;SDS011;62778;50.406;10.008;2022-09-12T02:15:33;10.30;;;5.38;;
74347;SDS011;62778;50.406;10.008;2022-09-12T02:17:54;8.02;;;4.60;;
74347;SDS011;62778;50.406;10.008;2022-09-12T02:18:52;8.93;;;5.32;;
74347;SDS011;62778;50.406;10.008;2022-09-12T02:19:53;10.13;;;5.15;;
74347;SDS011;62778;50.406;10.008;2022-09-12T02:20:50;8.95;;;4.80;;
74347;SDS011;62778;50.406;10.008;2022-09-12T02:21:49;9.43;;;4.80;;
74347;SDS011;62778;50.406;10.008;2022-09-12T02:22:47;8.13;;;4.38;;
74347;SDS011;62778;50.406;10.008;2022-09-12T02:23:44;8.32;;;4.60;;
74347;SDS011;62778;50.406;10.008;2022-09-12T02:24:44;8.00;;;4.03;;
74347;SDS011;62778;50.406;10.008;2022-09-12T02:25:41;9.20;;;4.72;;
74347;SDS011;62778;50.406;10.008;2022-09-12T02:26:42;7.72;;;4.60;;
74347;SDS011;62778;50.406;10.008;2022-09-12T02:27:48;8.67;;;4.73;;
74347;SDS011;62778;50.406;10.008;2022-09-12T02:28:46;8.88;;;5.00;;
74347;SDS011;62778;50.406;10.008;2022-09-12T02:29:41;8.45;;;4.70;;
74347;SDS011;62778;50.406;10.008;2022-09-12T02:30:40;9.63;;;5.00;;
74347;SDS011;62778;50.406;10.008;2022-09-12T02:31:43;11.02;;;5.20;;
74347;SDS011;62778;50.406;10.008;2022-09-12T02:34:03;11.90;;;5.78;;
74347;SDS011;62778;50.406;10.008;2022-09-12T02:36:41;10.18;;;6.00;;
74347;SDS011;62778;50.406;10.008;2022-09-12T02:39:00;10.30;;;5.70;;
74347;SDS011;62778;50.406;10.008;2022-09-12T02:39:55;9.43;;;4.93;;
74347;SDS011;62778;50.406;10.008;2022-09-12T02:40:51;8.75;;;4.60;;
74347;SDS011;62778;50.406;10.008;2022-09-12T02:41:48;9.90;;;5.10;;
74347;SDS011;62778;50.406;10.008;2022-09-12T02:42:45;10.80;;;5.07;;
74347;SDS011;62778;50.406;10.008;2022-09-12T02:43:40;8.90;;;4.93;;
74347;SDS011;62778;50.406;10.008;2022-09-12T02:44:35;7.88;;;5.03;;
74347;SDS011;62778;50.406;10.008;2022-09-12T02:45:32;8.40;;;4.63;;
74347;SDS011;62778;50.406;10.008;2022-09-12T02:46:38;9.35;;;5.18;;
74347;SDS011;62778;50.406;10.008;2022-09-12T02:47:37;8.88;;;5.15;;
74347;SDS011;62778;50.406;10.008;2022-09-12T02:48:36;10.90;;;5.55;;
74347;SDS011;62778;50.406;10.008;2022-09-12T02:49:33;10.07;;;5.50;;
74347;SDS011;62778;50.406;10.008;2022-09-12T02:50:29;10.20;;;5.90;;
74347;SDS011;62778;50.406;10.008;2022-09-12T02:51:25;9.52;;;5.43;;
74347;SDS011;62778;50.406;10.008;2022-09-12T02:52:20;10.68;;;6.03;;
74347;SDS011;62778;50.406;10.008;2022-09-12T02:53:16;10.37;;;5.53;;
74347;SDS011;62778;50.406;10.008;2022-09-12T02:54:12;10.32;;;6.20;;
74347;SDS011;62778;50.406;10.008;2022-09-12T02:55:09;9.75;;;6.20;;
74347;SDS011;62778;50.406;10.008;2022-09-12T02:56:07;9.63;;;5.57;;
74347;SDS011;62778;50.406;10.008;2022-09-12T02:57:16;10.38;;;5.38;;
74347;SDS011;62778;50.406;10.008;2022-09-12T02:58:13;9.60;;;5.20;;
74347;SDS011;62778;50.406;10.008;2022-09-12T02:59:12;10.40;;;5.35;;
74347;SDS011;62778;50.406;10.008;2022-09-12T03:00:10;9.87;;;5.13;;
74347;SDS011;62778;50.406;10.008;2022-09-12T03:01:11;10.40;;;5.10;;
74347;SDS011;62778;50.406;10.008;2022-09-12T03:03:50;9.55;;;5.35;;
74347;SDS011;62778;50.406;10.008;2022-09-12T03:06:15;9.07;;;4.70;;
74347;SDS011;62778;50.406;10.008;2022-09-12T03:08:20;7.70;;;4.15;;
74347;SDS011;62778;50.406;10.008;2022-09-12T03:09:29;9.45;;;4.82;;
74347;SDS011;62778;50.406;10.008;2022-09-12T03:13:22;8.30;;;4.60;;
74347;SDS011;62778;50.406;10.008;2022-09-12T03:16:34;8.37;;;4.40;;
74347;SDS011;62778;50.406;10.008;2022-09-12T03:20:12;7.47;;;3.88;;
74347;SDS011;62778;50.406;10.008;2022-09-12T03:21:12;7.15;;;3.78;;
74347;SDS011;62778;50.406;10.008;2022-09-12T03:22:15;6.90;;;3.38;;
74347;SDS011;62778;50.406;10.008;2022-09-12T03:25:29;9.82;;;4.55;;
74347;SDS011;62778;50.406;10.008;2022-09-12T03:26:37;8.10;;;4.05;;
74347;SDS011;62778;50.406;10.008;2022-09-12T03:27:37;9.77;;;5.43;;
74347;SDS011;62778;50.406;10.008;2022-09-12T03:28:44;9.80;;;5.38;;
74347;SDS011;62778;50.406;10.008;2022-09-12T03:29:40;8.15;;;4.55;;
74347;SDS011;62778;50.406;10.008;2022-09-12T03:30:40;7.80;;;4.13;;
74347;SDS011;62778;50.406;10.008;2022-09-12T03:31:38;9.20;;;4.85;;
74347;SDS011;62778;50.406;10.008;2022-09-12T03:33:42;7.68;;;4.45;;
74347;SDS011;62778;50.406;10.008;2022-09-12T03:34:37;9.32;;;5.20;;
74347;SDS011;62778;50.406;10.008;2022-09-12T03:35:33;7.90;;;4.60;;
74347;SDS011;62778;50.406;10.008;2022-09-12T03:36:28;11.20;;;4.70;;
74347;SDS011;62778;50.406;10.008;2022-09-12T03:37:24;8.68;;;4.72;;
74347;SDS011;62778;50.406;10.008;2022-09-12T03:38:19;10.20;;;4.90;;
74347;SDS011;62778;50.406;10.008;2022-09-12T03:39:15;8.73;;;4.57;;
74347;SDS011;62778;50.406;10.008;2022-09-12T03:40:11;9.88;;;4.88;;
74347;SDS011;62778;50.406;10.008;2022-09-12T03:41:06;7.53;;;4.13;;
74347;SDS011;62778;50.406;10.008;2022-09-12T03:42:01;7.22;;;4.20;;
74347;SDS011;62778;50.406;10.008;2022-09-12T03:42:57;8.17;;;4.03;;
74347;SDS011;62778;50.406;10.008;2022-09-12T03:43:52;8.33;;;4.37;;
74347;SDS011;62778;50.406;10.008;2022-09-12T03:44:47;8.03;;;4.60;;
74347;SDS011;62778;50.406;10.008;2022-09-12T03:45:43;8.48;;;4.53;;
74347;SDS011;62778;50.406;10.008;2022-09-12T03:46:38;9.80;;;5.30;;
74347;SDS011;62778;50.406;10.008;2022-09-12T03:47:33;9.37;;;4.80;;
74347;SDS011;62778;50.406;10.008;2022-09-12T03:48:29;8.80;;;4.70;;
74347;SDS011;62778;50.406;10.008;2022-09-12T03:49:28;7.88;;;4.38;;
74347;SDS011;62778;50.406;10.008;2022-09-12T03:50:23;7.57;;;3.90;;
74347;SDS011;62778;50.406;10.008;2022-09-12T03:51:19;7.45;;;3.45;;
74347;SDS011;62778;50.406;10.008;2022-09-12T03:52:14;8.17;;;4.20;;
74347;SDS011;62778;50.406;10.008;2022-09-12T03:53:10;7.37;;;4.03;;
74347;SDS011;62778;50.406;10.008;2022-09-12T03:54:05;9.48;;;4.78;;
74347;SDS011;62778;50.406;10.008;2022-09-12T03:55:01;9.37;;;4.83;;
74347;SDS011;62778;50.406;10.008;2022-09-12T03:55:56;8.48;;;4.50;;
74347;SDS011;62778;50.406;10.008;2022-09-12T03:56:52;9.43;;;4.47;;
74347;SDS011;62778;50.406;10.008;2022-09-12T03:57:47;8.43;;;4.40;;
74347;SDS011;62778;50.406;10.008;2022-09-12T03:58:42;10.23;;;4.77;;
74347;SDS011;62778;50.406;10.008;2022-09-12T03:59:38;9.73;;;4.73;;
74347;SDS011;62778;50.406;10.008;2022-09-12T04:00:33;8.23;;;4.47;;
74347;SDS011;62778;50.406;10.008;2022-09-12T04:01:28;9.90;;;4.60;;
74347;SDS011;62778;50.406;10.008;2022-09-12T04:02:24;7.75;;;4.13;;
74347;SDS011;62778;50.406;10.008;2022-09-12T04:03:19;9.27;;;4.50;;
74347;SDS011;62778;50.406;10.008;2022-09-12T04:04:14;6.83;;;3.87;;
74347;SDS011;62778;50.406;10.008;2022-09-12T04:05:10;7.53;;;3.80;;
74347;SDS011;62778;50.406;10.008;2022-09-12T04:06:05;8.27;;;4.03;;
74347;SDS011;62778;50.406;10.008;2022-09-12T04:07:01;6.82;;;3.70;;
74347;SDS011;62778;50.406;10.008;2022-09-12T04:07:56;7.10;;;3.40;;
74347;SDS011;62778;50.406;10.008;2022-09-12T04:08:52;8.93;;;3.53;;
74347;SDS011;62778;50.406;10.008;2022-09-12T04:09:48;8.55;;;4.05;;
74347;SDS011;62778;50.406;10.008;2022-09-12T04:10:43;6.90;;;3.10;;
74347;SDS011;62778;50.406;10.008;2022-09-12T04:11:38;7.77;;;3.93;;
74347;SDS011;62778;50.406;10.008;2022-09-12T04:12:33;8.97;;;3.97;;
74347;SDS011;62778;50.406;10.008;2022-09-12T04:13:29;9.82;;;4.15;;
74347;SDS011;62778;50.406;10.008;2022-09-12T04:14:24;8.67;;;4.10;;
74347;SDS011;62778;50.406;10.008;2022-09-12T04:15:20;7.73;;;3.83;;
74347;SDS011;62778;50.406;10.008;2022-09-12T04:16:15;7.53;;;4.30;;
74347;SDS011;62778;50.406;10.008;2022-09-12T04:17:11;9.82;;;4.45;;
74347;SDS011;62778;50.406;10.008;2022-09-12T04:18:06;8.50;;;3.90;;
74347;SDS011;62778;50.406;10.008;2022-09-12T04:19:02;7.60;;;4.00;;
74347;SDS011;62778;50.406;10.008;2022-09-12T04:19:57;8.52;;;4.20;;
74347;SDS011;62778;50.406;10.008;2022-09-12T04:20:53;7.97;;;4.20;;
74347;SDS011;62778;50.406;10.008;2022-09-12T04:21:48;7.33;;;3.93;;
74347;SDS011;62778;50.406;10.008;2022-09-12T04:22:43;8.13;;;3.63;;
74347;SDS011;62778;50.406;10.008;2022-09-12T04:23:39;9.03;;;4.20;;
74347;SDS011;62778;50.406;10.008;2022-09-12T04:24:34;7.22;;;4.20;;
74347;SDS011;62778;50.406;10.008;2022-09-12T04:25:30;8.00;;;3.60;;
74347;SDS011;62778;50.406;10.008;2022-09-12T04:26:25;8.77;;;3.80;;
74347;SDS011;62778;50.406;10.008;2022-09-12T04:27:23;7.50;;;3.97;;
74347;SDS011;62778;50.406;10.008;2022-09-12T04:28:19;7.97;;;4.07;;
74347;SDS011;62778;50.406;10.008;2022-09-12T04:29:14;7.90;;;4.00;;
74347;SDS011;62778;50.406;10.008;2022-09-12T04:30:09;7.65;;;4.18;;
74347;SDS011;62778;50.406;10.008;2022-09-12T04:31:06;7.70;;;3.90;;
74347;SDS011;62778;50.406;10.008;2022-09-12T04:32:03;9.13;;;4.90;;
74347;SDS011;62778;50.406;10.008;2022-09-12T04:32:58;8.45;;;4.63;;
74347;SDS011;62778;50.406;10.008;2022-09-12T04:33:54;9.30;;;4.27;;
74347;SDS011;62778;50.406;10.008;2022-09-12T04:34:54;8.02;;;4.47;;
74347;SDS011;62778;50.406;10.008;2022-09-12T04:35:49;8.77;;;5.20;;
74347;SDS011;62778;50.406;10.008;2022-09-12T04:36:45;9.50;;;4.70;;
74347;SDS011;62778;50.406;10.008;2022-09-12T04:37:40;8.38;;;4.40;;
74347;SDS011;62778;50.406;10.008;2022-09-12T04:38:35;9.43;;;4.03;;
74347;SDS011;62778;50.406;10.008;2022-09-12T04:39:31;7.77;;;4.20;;
74347;SDS011;62778;50.406;10.008;2022-09-12T04:40:28;8.05;;;4.03;;
74347;SDS011;62778;50.406;10.008;2022-09-12T04:41:27;7.57;;;4.15;;
74347;SDS011;62778;50.406;10.008;2022-09-12T04:42:25;10.40;;;4.53;;
74347;SDS011;62778;50.406;10.008;2022-09-12T04:43:20;9.25;;;4.57;;
74347;SDS011;62778;50.406;10.008;2022-09-12T04:44:16;8.10;;;3.90;;
74347;SDS011;62778;50.406;10.008;2022-09-12T04:45:11;9.13;;;3.90;;
74347;SDS011;62778;50.406;10.008;2022-09-12T04:46:08;7.60;;;3.88;;
74347;SDS011;62778;50.406;10.008;2022-09-12T04:47:04;7.43;;;3.20;;
74347;SDS011;62778;50.406;10.008;2022-09-12T04:48:00;6.77;;;2.90;;
74347;SDS011;62778;50.406;10.008;2022-09-12T04:48:55;7.60;;;3.70;;
74347;SDS011;62778;50.406;10.008;2022-09-12T04:49:51;8.17;;;4.00;;
74347;SDS011;62778;50.406;10.008;2022-09-12T04:50:46;7.13;;;3.85;;
74347;SDS011;62778;50.406;10.008;2022-09-12T04:51:42;7.70;;;3.70;;
74347;SDS011;62778;50.406;10.008;2022-09-12T04:52:37;7.90;;;3.97;;
74347;SDS011;62778;50.406;10.008;2022-09-12T04:53:32;7.27;;;3.63;;
74347;SDS011;62778;50.406;10.008;2022-09-12T04:54:28;8.53;;;4.17;;
74347;SDS011;62778;50.406;10.008;2022-09-12T04:55:23;9.65;;;4.85;;
74347;SDS011;62778;50.406;10.008;2022-09-12T04:56:19;10.77;;;5.43;;
74347;SDS011;62778;50.406;10.008;2022-09-12T04:57:15;9.32;;;4.75;;
74347;SDS011;62778;50.406;10.008;2022-09-12T04:58:10;8.20;;;4.40;;
74347;SDS011;62778;50.406;10.008;2022-09-12T04:59:06;9.40;;;5.07;;
74347;SDS011;62778;50.406;10.008;2022-09-12T05:00:03;7.50;;;4.38;;
74347;SDS011;62778;50.406;10.008;2022-09-12T05:01:06;10.17;;;5.03;;
74347;SDS011;62778;50.406;10.008;2022-09-12T05:02:03;7.45;;;4.30;;
74347;SDS011;62778;50.406;10.008;2022-09-12T05:02:58;9.32;;;4.70;;
74347;SDS011;62778;50.406;10.008;2022-09-12T05:03:54;7.37;;;4.23;;
74347;SDS011;62778;50.406;10.008;2022-09-12T05:04:52;8.48;;;4.47;;
74347;SDS011;62778;50.406;10.008;2022-09-12T05:05:48;10.80;;;4.45;;
74347;SDS011;62778;50.406;10.008;2022-09-12T05:06:43;9.60;;;4.80;;
74347;SDS011;62778;50.406;10.008;2022-09-12T05:07:41;9.45;;;5.13;;
74347;SDS011;62778;50.406;10.008;2022-09-12T05:08:36;8.90;;;4.43;;
74347;SDS011;62778;50.406;10.008;2022-09-12T05:09:32;7.65;;;4.30;;
74347;SDS011;62778;50.406;10.008;2022-09-12T05:10:27;10.03;;;4.77;;
74347;SDS011;62778;50.406;10.008;2022-09-12T05:11:24;8.50;;;4.10;;
74347;SDS011;62778;50.406;10.008;2022-09-12T05:12:21;7.17;;;3.93;;
74347;SDS011;62778;50.406;10.008;2022-09-12T05:13:17;7.75;;;4.00;;
74347;SDS011;62778;50.406;10.008;2022-09-12T05:14:15;8.27;;;3.90;;
74347;SDS011;62778;50.406;10.008;2022-09-12T05:15:10;9.23;;;4.13;;
74347;SDS011;62778;50.406;10.008;2022-09-12T05:16:06;7.53;;;3.63;;
74347;SDS011;62778;50.406;10.008;2022-09-12T05:17:02;6.78;;;3.75;;
74347;SDS011;62778;50.406;10.008;2022-09-12T05:17:59;7.13;;;3.70;;
74347;SDS011;62778;50.406;10.008;2022-09-12T05:18:55;8.23;;;3.47;;
74347;SDS011;62778;50.406;10.008;2022-09-12T05:19:51;7.57;;;4.22;;
74347;SDS011;62778;50.406;10.008;2022-09-12T05:20:47;8.30;;;4.07;;
74347;SDS011;62778;50.406;10.008;2022-09-12T05:21:42;7.30;;;3.80;;
74347;SDS011;62778;50.406;10.008;2022-09-12T05:22:37;9.30;;;4.30;;
74347;SDS011;62778;50.406;10.008;2022-09-12T05:23:33;8.53;;;3.50;;
74347;SDS011;62778;50.406;10.008;2022-09-12T05:24:28;7.30;;;3.83;;
74347;SDS011;62778;50.406;10.008;2022-09-12T05:25:24;8.43;;;4.22;;
74347;SDS011;62778;50.406;10.008;2022-09-12T05:26:20;8.87;;;3.80;;
74347;SDS011;62778;50.406;10.008;2022-09-12T05:27:15;7.55;;;4.10;;
74347;SDS011;62778;50.406;10.008;2022-09-12T05:28:11;8.03;;;4.33;;
74347;SDS011;62778;50.406;10.008;2022-09-12T05:29:06;7.60;;;4.07;;
74347;SDS011;62778;50.406;10.008;2022-09-12T05:30:01;8.50;;;3.70;;
74347;SDS011;62778;50.406;10.008;2022-09-12T05:31:00;7.65;;;3.88;;
74347;SDS011;62778;50.406;10.008;2022-09-12T05:31:57;8.00;;;3.77;;
74347;SDS011;62778;50.406;10.008;2022-09-12T05:32:53;7.85;;;4.15;;
74347;SDS011;62778;50.406;10.008;2022-09-12T05:33:48;9.30;;;4.40;;
74347;SDS011;62778;50.406;10.008;2022-09-12T05:34:45;7.32;;;3.78;;
74347;SDS011;62778;50.406;10.008;2022-09-12T05:35:40;9.43;;;4.40;;
74347;SDS011;62778;50.406;10.008;2022-09-12T05:36:35;8.10;;;4.40;;
74347;SDS011;62778;50.406;10.008;2022-09-12T05:37:31;8.98;;;4.80;;
74347;SDS011;62778;50.406;10.008;2022-09-12T05:38:26;8.50;;;4.53;;
74347;SDS011;62778;50.406;10.008;2022-09-12T05:39:23;8.98;;;4.68;;
74347;SDS011;62778;50.406;10.008;2022-09-12T05:40:18;8.20;;;4.37;;
74347;SDS011;62778;50.406;10.008;2022-09-12T05:41:16;8.30;;;4.00;;
74347;SDS011;62778;50.406;10.008;2022-09-12T05:42:13;7.70;;;3.10;;
74347;SDS011;62778;50.406;10.008;2022-09-12T05:43:08;7.27;;;2.97;;
74347;SDS011;62778;50.406;10.008;2022-09-12T05:44:06;5.97;;;2.70;;
74347;SDS011;62778;50.406;10.008;2022-09-12T05:45:05;6.22;;;2.78;;
74347;SDS011;62778;50.406;10.008;2022-09-12T05:46:05;7.50;;;2.90;;
74347;SDS011;62778;50.406;10.008;2022-09-12T05:47:02;7.40;;;3.50;;
74347;SDS011;62778;50.406;10.008;2022-09-12T05:47:58;8.15;;;3.95;;
74347;SDS011;62778;50.406;10.008;2022-09-12T05:48:53;7.17;;;3.67;;
74347;SDS011;62778;50.406;10.008;2022-09-12T05:49:49;7.30;;;4.30;;
74347;SDS011;62778;50.406;10.008;2022-09-12T05:50:45;10.00;;;4.20;;
74347;SDS011;62778;50.406;10.008;2022-09-12T05:51:42;8.07;;;3.70;;
74347;SDS011;62778;50.406;10.008;2022-09-12T05:52:38;6.40;;;3.47;;
74347;SDS011;62778;50.406;10.008;2022-09-12T05:53:34;5.87;;;2.87;;
74347;SDS011;62778;50.406;10.008;2022-09-12T05:54:30;6.93;;;2.88;;
74347;SDS011;62778;50.406;10.008;2022-09-12T05:55:25;6.10;;;2.90;;
74347;SDS011;62778;50.406;10.008;2022-09-12T05:56:21;5.70;;;2.93;;
74347;SDS011;62778;50.406;10.008;2022-09-12T05:57:18;6.03;;;2.97;;
74347;SDS011;62778;50.406;10.008;2022-09-12T05:58:13;6.10;;;2.80;;
74347;SDS011;62778;50.406;10.008;2022-09-12T05:59:13;7.27;;;3.00;;
74347;SDS011;62778;50.406;10.008;2022-09-12T06:00:13;6.90;;;3.57;;
74347;SDS011;62778;50.406;10.008;2022-09-12T06:01:10;6.85;;;3.35;;
74347;SDS011;62778;50.406;10.008;2022-09-12T06:02:09;8.25;;;4.10;;
74347;SDS011;62778;50.406;10.008;2022-09-12T06:03:04;8.45;;;3.95;;
74347;SDS011;62778;50.406;10.008;2022-09-12T06:04:00;10.30;;;4.30;;
74347;SDS011;62778;50.406;10.008;2022-09-12T06:04:57;8.35;;;4.60;;
74347;SDS011;62778;50.406;10.008;2022-09-12T06:05:53;7.13;;;3.70;;
74347;SDS011;62778;50.406;10.008;2022-09-12T06:06:48;9.10;;;4.80;;
74347;SDS011;62778;50.406;10.008;2022-09-12T06:07:44;8.25;;;3.67;;
74347;SDS011;62778;50.406;10.008;2022-09-12T06:08:41;8.10;;;4.70;;
74347;SDS011;62778;50.406;10.008;2022-09-12T06:09:38;8.50;;;4.20;;
74347;SDS011;62778;50.406;10.008;2022-09-12T06:10:33;8.93;;;4.13;;
74347;SDS011;62778;50.406;10.008;2022-09-12T06:11:30;8.27;;;4.43;;
74347;SDS011;62778;50.406;10.008;2022-09-12T06:12:27;7.90;;;4.68;;
74347;SDS011;62778;50.406;10.008;2022-09-12T06:13:23;8.27;;;4.68;;
74347;SDS011;62778;50.406;10.008;2022-09-12T06:14:19;8.30;;;4.37;;
74347;SDS011;62778;50.406;10.008;2022-09-12T06:15:14;8.48;;;4.90;;
74347;SDS011;62778;50.406;10.008;2022-09-12T06:16:11;8.10;;;4.43;;
74347;SDS011;62778;50.406;10.008;2022-09-12T06:17:07;9.18;;;4.38;;
74347;SDS011;62778;50.406;10.008;2022-09-12T06:18:03;6.75;;;3.42;;
74347;SDS011;62778;50.406;10.008;2022-09-12T06:19:10;10.07;;;3.40;;
74347;SDS011;62778;50.406;10.008;2022-09-12T06:20:08;6.93;;;3.10;;
74347;SDS011;62778;50.406;10.008;2022-09-12T06:21:04;6.80;;;3.13;;
74347;SDS011;62778;50.406;10.008;2022-09-12T06:22:00;6.47;;;3.30;;
74347;SDS011;62778;50.406;10.008;2022-09-12T06:22:55;7.40;;;3.10;;
74347;SDS011;62778;50.406;10.008;2022-09-12T06:23:52;6.53;;;3.00;;
74347;SDS011;62778;50.406;10.008;2022-09-12T06:24:48;6.85;;;3.30;;
74347;SDS011;62778;50.406;10.008;2022-09-12T06:25:46;6.27;;;3.03;;
74347;SDS011;62778;50.406;10.008;2022-09-12T06:26:43;6.50;;;2.95;;